createdAt,value
2023-02-19T00:00:33.751Z,100944.859375
2023-02-19T00:01:33.823Z,100951.30859375
2023-02-19T00:02:33.864Z,100940.33984375
2023-02-19T00:03:34.130Z,100945.078125
2023-02-19T00:04:33.899Z,100944.5859375
2023-02-19T00:05:33.763Z,100943.77734375
2023-02-19T00:06:36.173Z,100944.37890625
2023-02-19T00:07:33.751Z,100941.265625
2023-02-19T00:08:34.101Z,100935.75
2023-02-19T00:09:33.875Z,100936.94140625
2023-02-19T00:10:33.819Z,100933.79296875
2023-02-19T00:11:33.874Z,100936.9609375
2023-02-19T00:12:33.900Z,100938.4140625
2023-02-19T00:13:33.986Z,100939.0703125
2023-02-19T00:14:33.831Z,100938.85546875
2023-02-19T00:15:33.893Z,100933.29296875
2023-02-19T00:16:33.859Z,100932.36328125
2023-02-19T00:17:36.173Z,100927.5625
2023-02-19T00:18:34.114Z,100920.6875
2023-02-19T00:19:33.832Z,100921.83203125
2023-02-19T00:20:33.886Z,100925.66015625
2023-02-19T00:21:33.736Z,100927.234375
2023-02-19T00:22:33.844Z,100924.890625
2023-02-19T00:23:34.099Z,100917.5234375
2023-02-19T00:24:33.879Z,100914.89453125
2023-02-19T00:25:33.842Z,100913.00390625
2023-02-19T00:26:33.858Z,100915.078125
2023-02-19T00:27:33.834Z,100920.13671875
2023-02-19T00:28:38.616Z,100922.171875
2023-02-19T00:29:33.746Z,100928.046875
2023-02-19T00:30:33.919Z,100929.59375
2023-02-19T00:31:33.935Z,100926.52734375
2023-02-19T00:32:33.753Z,100925.1640625
2023-02-19T00:33:33.875Z,100924.24609375
2023-02-19T00:34:33.886Z,100926.25390625
2023-02-19T00:35:33.756Z,100925.05859375
2023-02-19T00:36:33.811Z,100930.1328125
2023-02-19T00:37:33.875Z,100917.6953125
2023-02-19T00:38:34.104Z,100920.90234375
2023-02-19T00:39:36.171Z,100928.10546875
2023-02-19T00:40:33.851Z,100928.54296875
2023-02-19T00:41:33.766Z,100930.01953125
2023-02-19T00:42:33.750Z,100922.875
2023-02-19T00:43:34.244Z,100922.15625
2023-02-19T00:44:33.852Z,100923.64453125
2023-02-19T00:45:33.878Z,100925.71875
2023-02-19T00:46:33.901Z,100930.671875
2023-02-19T00:47:33.847Z,100930.99609375
2023-02-19T00:48:34.104Z,100926.421875
2023-02-19T00:49:33.833Z,100924.13671875
2023-02-19T00:50:36.149Z,100919.53515625
2023-02-19T00:51:33.815Z,100917.078125
2023-02-19T00:52:33.855Z,100911.7890625
2023-02-19T00:53:34.109Z,100902.67578125
2023-02-19T00:54:33.877Z,100900.0546875
2023-02-19T00:55:33.783Z,100896.6796875
2023-02-19T00:56:33.851Z,100898.26171875
2023-02-19T00:57:33.881Z,100903.22265625
2023-02-19T00:58:34.118Z,100905.1328125
2023-02-19T00:59:33.758Z,100907.640625
2023-02-19T01:00:33.869Z,100898.86328125
2023-02-19T01:01:36.241Z,100897.2265625
2023-02-19T01:02:33.863Z,100902.35546875
2023-02-19T01:03:34.098Z,100899.41015625
2023-02-19T01:04:33.798Z,100905.08203125
2023-02-19T01:05:33.813Z,100911.6796875
2023-02-19T01:06:33.775Z,100912.2265625
2023-02-19T01:07:33.851Z,100914.69140625
2023-02-19T01:08:34.119Z,100905.03125
2023-02-19T01:09:33.799Z,100900.5625
2023-02-19T01:10:33.871Z,100892.4375
2023-02-19T01:11:33.852Z,100889.31640625
2023-02-19T01:12:38.674Z,100893.578125
2023-02-19T01:13:34.091Z,100890.6875
2023-02-19T01:14:33.836Z,100884.84375
2023-02-19T01:15:33.761Z,100887.3046875
2023-02-19T01:16:33.758Z,100887.359375
2023-02-19T01:17:33.788Z,100889.6875
2023-02-19T01:18:34.110Z,100892.640625
2023-02-19T01:19:33.849Z,100884.56640625
2023-02-19T01:20:33.783Z,100878.7265625
2023-02-19T01:21:33.781Z,100882.609375
2023-02-19T01:22:33.786Z,100885.76171875
2023-02-19T01:23:38.580Z,100881.07421875
2023-02-19T01:24:33.896Z,100885.1484375
2023-02-19T01:25:33.773Z,100884.27734375
2023-02-19T01:26:33.822Z,100883.359375
2023-02-19T01:27:34.122Z,100881.06640625
2023-02-19T01:28:34.118Z,100879.76171875
2023-02-19T01:29:33.735Z,100878.94140625
2023-02-19T01:30:33.962Z,100877.13671875
2023-02-19T01:31:34.102Z,100880.5234375
2023-02-19T01:32:33.783Z,100880.57421875
2023-02-19T01:33:34.102Z,100881.6640625
2023-02-19T01:34:36.159Z,100877.1953125
2023-02-19T01:35:33.737Z,100878.625
2023-02-19T01:36:33.740Z,100878.78515625
2023-02-19T01:37:33.733Z,100877.4140625
2023-02-19T01:38:34.120Z,100876.484375
2023-02-19T01:39:33.877Z,100873.0078125
2023-02-19T01:40:33.763Z,100875.95703125
2023-02-19T01:41:33.877Z,100875.55859375
2023-02-19T01:42:34.093Z,100872.2265625
2023-02-19T01:43:34.097Z,100875.62890625
2023-02-19T01:44:33.765Z,100874.640625
2023-02-19T01:45:36.140Z,100870.4375
2023-02-19T01:46:33.968Z,100876.4453125
2023-02-19T01:47:33.778Z,100869.39453125
2023-02-19T01:48:34.100Z,100873.55078125
2023-02-19T01:49:33.841Z,100872.296875
2023-02-19T01:50:33.734Z,100872.51171875
2023-02-19T01:51:33.834Z,100872.6171875
2023-02-19T01:52:33.875Z,100869.9375
2023-02-19T01:53:34.103Z,100867.4921875
2023-02-19T01:54:33.733Z,100869.6796875
2023-02-19T01:55:33.838Z,100863.1328125
2023-02-19T01:56:36.231Z,100862.80078125
2023-02-19T01:57:34.095Z,100860.34375
2023-02-19T01:58:34.251Z,100864.26953125
2023-02-19T01:59:33.931Z,100864.59765625
2023-02-19T02:00:33.904Z,100866.02734375
2023-02-19T02:01:33.849Z,100865.734375
2023-02-19T02:02:33.735Z,100862.02734375
2023-02-19T02:03:34.101Z,100865.69140625
2023-02-19T02:04:33.860Z,100867.26953125
2023-02-19T02:05:33.735Z,100862.140625
2023-02-19T02:06:33.830Z,100866.73046875
2023-02-19T02:07:36.184Z,100866.5078125
2023-02-19T02:08:34.096Z,100868.6875
2023-02-19T02:09:33.830Z,100861.37890625
2023-02-19T02:10:33.745Z,100857.45703125
2023-02-19T02:11:33.755Z,100859.9140625
2023-02-19T02:12:34.137Z,100859.421875
2023-02-19T02:13:34.103Z,100859.421875
2023-02-19T02:14:33.822Z,100855.5078125
2023-02-19T02:15:33.787Z,100854.73046875
2023-02-19T02:16:33.912Z,100851.90625
2023-02-19T02:17:33.823Z,100846.7734375
2023-02-19T02:18:38.626Z,100844.875
2023-02-19T02:19:33.875Z,100843.73046875
2023-02-19T02:20:33.876Z,100838.98046875
2023-02-19T02:21:33.797Z,100842.140625
2023-02-19T02:22:33.766Z,100840.40234375
2023-02-19T02:23:34.099Z,100839.84765625
2023-02-19T02:24:33.881Z,100840.609375
2023-02-19T02:25:33.878Z,100835.87109375
2023-02-19T02:26:33.897Z,100840.125
2023-02-19T02:27:34.108Z,100838.4375
2023-02-19T02:28:34.103Z,100840.71875
2023-02-19T02:29:36.162Z,100843.0703125
2023-02-19T02:30:33.851Z,100844.70703125
2023-02-19T02:31:33.934Z,100838.30859375
2023-02-19T02:32:33.827Z,100835.75
2023-02-19T02:33:34.105Z,100830.78125
2023-02-19T02:34:33.886Z,100831.6015625
2023-02-19T02:35:33.872Z,100830.84765625
2023-02-19T02:36:33.866Z,100828.0703125
2023-02-19T02:37:33.860Z,100826.19921875
2023-02-19T02:38:34.112Z,100832.36328125
2023-02-19T02:39:33.810Z,100830.44921875
2023-02-19T02:40:36.162Z,100832.2578125
2023-02-19T02:41:33.775Z,100833.296875
2023-02-19T02:42:34.114Z,100828.98828125
2023-02-19T02:43:34.106Z,100826.63671875
2023-02-19T02:44:33.881Z,100836.52734375
2023-02-19T02:45:33.915Z,100838.21484375
2023-02-19T02:46:33.858Z,100833.2421875
2023-02-19T02:47:33.810Z,100827.4765625
2023-02-19T02:48:34.104Z,100822.7109375
2023-02-19T02:49:33.810Z,100819.0625
2023-02-19T02:50:33.872Z,100815.3046875
2023-02-19T02:51:36.195Z,100822.44921875
2023-02-19T02:52:33.814Z,100823.58984375
2023-02-19T02:53:34.107Z,100826.80859375
2023-02-19T02:54:33.859Z,100831.99609375
2023-02-19T02:55:33.849Z,100832
2023-02-19T02:56:33.864Z,100832.7109375
2023-02-19T02:57:34.102Z,100828.5
2023-02-19T02:58:33.892Z,100824.7890625
2023-02-19T02:59:33.743Z,100828.0078125
2023-02-19T03:00:33.746Z,100827.0859375
2023-02-19T03:01:33.844Z,100822.88671875
2023-02-19T03:02:36.175Z,100820.58984375
2023-02-19T03:03:34.120Z,100816.171875
2023-02-19T03:04:33.821Z,100816.6171875
2023-02-19T03:05:33.875Z,100813.17578125
2023-02-19T03:06:33.842Z,100812.03125
2023-02-19T03:07:33.757Z,100812.41015625
2023-02-19T03:08:34.102Z,100812.359375
2023-02-19T03:09:33.779Z,100815.8984375
2023-02-19T03:10:33.840Z,100818.62109375
2023-02-19T03:11:33.807Z,100815.68359375
2023-02-19T03:12:34.121Z,100817.2109375
2023-02-19T03:13:38.577Z,100820.31640625
2023-02-19T03:14:33.865Z,100820.75
2023-02-19T03:15:33.745Z,100818.2421875
2023-02-19T03:16:33.906Z,100813.5546875
2023-02-19T03:17:33.838Z,100812.68359375
2023-02-19T03:18:34.104Z,100807.3984375
2023-02-19T03:19:33.762Z,100807
2023-02-19T03:20:33.826Z,100810.93359375
2023-02-19T03:21:33.840Z,100811.86328125
2023-02-19T03:22:33.768Z,100809.2265625
2023-02-19T03:23:34.103Z,100809.8984375
2023-02-19T03:24:36.215Z,100810.55078125
2023-02-19T03:25:33.739Z,100812.51171875
2023-02-19T03:26:33.738Z,100815.5078125
2023-02-19T03:27:34.126Z,100816.76953125
2023-02-19T03:28:34.097Z,100816.58984375
2023-02-19T03:29:33.775Z,100816.1171875
2023-02-19T03:30:33.879Z,100813.76953125
2023-02-19T03:31:33.859Z,100818.83984375
2023-02-19T03:32:33.876Z,100817.54296875
2023-02-19T03:33:34.091Z,100815.953125
2023-02-19T03:34:33.855Z,100817.33203125
2023-02-19T03:35:36.217Z,100821.6953125
2023-02-19T03:36:33.806Z,100826.05078125
2023-02-19T03:37:33.853Z,100825.0078125
2023-02-19T03:38:34.089Z,100822.87890625
2023-02-19T03:39:33.761Z,100819.828125
2023-02-19T03:40:33.813Z,100824.953125
2023-02-19T03:41:33.807Z,100825.71875
2023-02-19T03:42:33.834Z,100823.37109375
2023-02-19T03:43:34.691Z,100824.91015625
2023-02-19T03:44:33.879Z,100823.65234375
2023-02-19T03:45:33.773Z,100822.078125
2023-02-19T03:46:36.172Z,100820.0546875
2023-02-19T03:47:33.785Z,100818.41015625
2023-02-19T03:48:34.102Z,100811.75390625
2023-02-19T03:49:33.824Z,100823.69921875
2023-02-19T03:50:33.885Z,100825.0078125
2023-02-19T03:51:33.886Z,100823.31640625
2023-02-19T03:52:33.875Z,100827.51953125
2023-02-19T03:53:34.100Z,100829.1015625
2023-02-19T03:54:33.781Z,100829.09765625
2023-02-19T03:55:33.744Z,100839.3125
2023-02-19T03:56:33.763Z,100840.93359375
2023-02-19T03:57:36.205Z,100843.28125
2023-02-19T03:58:34.099Z,100843.67578125
2023-02-19T03:59:33.868Z,100840.0703125
2023-02-19T04:00:33.847Z,100847.00390625
2023-02-19T04:01:33.895Z,100843.16796875
2023-02-19T04:02:33.946Z,100844.86328125
2023-02-19T04:03:34.104Z,100848.1328125
2023-02-19T04:04:33.908Z,100841.42578125
2023-02-19T04:05:33.746Z,100845.56640625
2023-02-19T04:06:33.995Z,100843.765625
2023-02-19T04:07:33.861Z,100841.9765625
2023-02-19T04:08:38.678Z,100840.6640625
2023-02-19T04:09:33.771Z,100840.40625
2023-02-19T04:10:33.793Z,100843.27734375
2023-02-19T04:11:33.884Z,100842.51171875
2023-02-19T04:12:33.869Z,100841.26171875
2023-02-19T04:13:34.129Z,100840.33203125
2023-02-19T04:14:33.843Z,100841.15234375
2023-02-19T04:15:33.772Z,100844.6953125
2023-02-19T04:16:33.905Z,100838.1484375
2023-02-19T04:17:33.890Z,100841.48828125
2023-02-19T04:18:34.114Z,100845.96484375
2023-02-19T04:19:36.179Z,100839.078125
2023-02-19T04:20:33.876Z,100837.7265625
2023-02-19T04:21:33.893Z,100837.83203125
2023-02-19T04:22:33.792Z,100838.76953125
2023-02-19T04:23:34.110Z,100837.3984375
2023-02-19T04:24:33.778Z,100835.75390625
2023-02-19T04:25:33.746Z,100830.33984375
2023-02-19T04:26:33.799Z,100834.4921875
2023-02-19T04:27:33.886Z,100837.875
2023-02-19T04:28:33.861Z,100829.90234375
2023-02-19T04:29:33.845Z,100832.15234375
2023-02-19T04:30:36.392Z,100834.65234375
2023-02-19T04:31:33.970Z,100838.0390625
2023-02-19T04:32:33.873Z,100837.00390625
2023-02-19T04:33:34.112Z,100837.48046875
2023-02-19T04:34:33.787Z,100840.76953125
2023-02-19T04:35:33.754Z,100841.80078125
2023-02-19T04:36:33.827Z,100842.33984375
2023-02-19T04:37:33.815Z,100841.30859375
2023-02-19T04:38:34.094Z,100842.87890625
2023-02-19T04:39:33.844Z,100844.359375
2023-02-19T04:40:33.885Z,100841.0234375
2023-02-19T04:41:36.183Z,100844.078125
2023-02-19T04:42:33.826Z,100841.578125
2023-02-19T04:45:11.697Z,100843.15234375
2023-02-19T04:46:11.796Z,100840.97265625
2023-02-19T04:47:11.635Z,100847.1953125
2023-02-19T04:48:11.968Z,100849.609375
2023-02-19T04:49:11.730Z,100847.95703125
2023-02-19T04:50:14.241Z,100856.14453125
2023-02-19T04:51:12.017Z,100855.7109375
2023-02-19T04:52:11.682Z,100857.609375
2023-02-19T04:53:11.972Z,100863.33984375
2023-02-19T04:54:11.689Z,100862.84765625
2023-02-19T04:55:11.665Z,100865.95703125
2023-02-19T04:56:11.731Z,100866.9921875
2023-02-19T04:57:11.609Z,100864.48046875
2023-02-19T04:58:11.976Z,100865.14453125
2023-02-19T04:59:11.608Z,100868.30859375
2023-02-19T05:00:11.716Z,100873.55078125
2023-02-19T05:01:14.477Z,100873.3828125
2023-02-19T05:02:11.695Z,100873.1484375
2023-02-19T05:03:11.959Z,100875.3515625
2023-02-19T05:04:11.733Z,100874.35546875
2023-02-19T05:05:11.742Z,100876.15625
2023-02-19T05:06:11.692Z,100868.24609375
2023-02-19T05:07:11.715Z,100877.51171875
2023-02-19T05:08:11.967Z,100879.03515625
2023-02-19T05:09:11.724Z,100880.5625
2023-02-19T05:10:11.661Z,100884.88671875
2023-02-19T05:11:12.071Z,100879.8671875
2023-02-19T05:12:14.053Z,100880.0859375
2023-02-19T05:13:12.017Z,100874.95703125
2023-02-19T05:14:11.689Z,100876.97265625
2023-02-19T05:15:11.717Z,100881.7734375
2023-02-19T05:16:11.713Z,100881.19140625
2023-02-19T05:17:11.635Z,100879.2109375
2023-02-19T05:18:11.966Z,100887.78125
2023-02-19T05:19:11.721Z,100880.57421875
2023-02-19T05:20:11.836Z,100883.8046875
2023-02-19T05:21:11.988Z,100882.49609375
2023-02-19T05:22:11.628Z,100881.00390625
2023-02-19T05:23:16.380Z,100884.60546875
2023-02-19T05:24:11.745Z,100884.94921875
2023-02-19T05:25:11.657Z,100891.05078125
2023-02-19T05:26:11.635Z,100888.23046875
2023-02-19T05:27:11.613Z,100888.59375
2023-02-19T05:28:11.960Z,100890.94140625
2023-02-19T05:29:11.692Z,100890.078125
2023-02-19T05:30:11.755Z,100886.91015625
2023-02-19T05:31:12.197Z,100887.3046875
2023-02-19T05:32:11.836Z,100886.98046875
2023-02-19T05:33:11.954Z,100882.7109375
2023-02-19T05:34:14.072Z,100886.265625
2023-02-19T05:35:11.672Z,100889.37109375
2023-02-19T05:36:11.728Z,100882.99609375
2023-02-19T05:37:11.694Z,100887.40234375
2023-02-19T05:38:11.956Z,100887.96484375
2023-02-19T05:39:11.679Z,100888.5078125
2023-02-19T05:40:11.696Z,100886.1015625
2023-02-19T05:41:12.105Z,100881.07421875
2023-02-19T05:42:11.693Z,100894.3359375
2023-02-19T05:43:11.961Z,100896.6953125
2023-02-19T05:44:11.734Z,100895.38671875
2023-02-19T05:45:14.004Z,100899.18359375
2023-02-19T05:46:11.727Z,100900.3515625
2023-02-19T05:47:11.588Z,100900.3984375
2023-02-19T05:48:12.140Z,100900.84375
2023-02-19T05:49:11.720Z,100895.8046875
2023-02-19T05:50:12.709Z,100902.96875
2023-02-19T05:51:12.068Z,100899.36328125
2023-02-19T05:52:11.644Z,100903.61328125
2023-02-19T05:53:11.951Z,100908.9609375
2023-02-19T05:54:11.703Z,100913.2265625
2023-02-19T05:55:11.607Z,100908.2421875
2023-02-19T05:56:13.903Z,100911.03125
2023-02-19T05:57:11.688Z,100912.3515625
2023-02-19T05:58:11.954Z,100913.76171875
2023-02-19T05:59:11.746Z,100918.5546875
2023-02-19T06:00:11.700Z,100916.9375
2023-02-19T06:01:11.908Z,100920.37109375
2023-02-19T06:02:11.726Z,100917.80859375
2023-02-19T06:03:11.954Z,100920.08203125
2023-02-19T06:04:11.850Z,100917.42578125
2023-02-19T06:05:11.676Z,100914.14453125
2023-02-19T06:06:11.674Z,100916.53515625
2023-02-19T06:07:14.047Z,100919.703125
2023-02-19T06:08:11.948Z,100921.3515625
2023-02-19T06:09:11.713Z,100925.4921875
2023-02-19T06:10:11.717Z,100933.78515625
2023-02-19T06:11:12.020Z,100928.109375
2023-02-19T06:12:11.719Z,100932.9609375
2023-02-19T06:13:11.708Z,100938.30859375
2023-02-19T06:14:11.712Z,100936.6171875
2023-02-19T06:15:11.625Z,100937.59375
2023-02-19T06:16:11.783Z,100944.3046875
2023-02-19T06:17:11.603Z,100943.265625
2023-02-19T06:18:16.422Z,100945.50390625
2023-02-19T06:19:11.633Z,100945.23046875
2023-02-19T06:20:12.705Z,100946.921875
2023-02-19T06:21:12.001Z,100941.67578125
2023-02-19T06:22:11.623Z,100937.43359375
2023-02-19T06:23:11.956Z,100932.45703125
2023-02-19T06:24:11.596Z,100934.30078125
2023-02-19T06:25:11.616Z,100937.578125
2023-02-19T06:26:11.802Z,100943.80078125
2023-02-19T06:27:11.610Z,100950.9453125
2023-02-19T06:28:11.951Z,100947.36328125
2023-02-19T06:29:14.000Z,100956.03515625
2023-02-19T06:30:11.813Z,100955.75
2023-02-19T06:31:12.133Z,100961.58984375
2023-02-19T06:32:11.652Z,100960.12109375
2023-02-19T06:33:11.962Z,100959.58984375
2023-02-19T06:34:11.624Z,100966.28515625
2023-02-19T06:35:11.714Z,100959.6328125
2023-02-19T06:36:11.704Z,100964.5390625
2023-02-19T06:37:11.649Z,100959.90234375
2023-02-19T06:38:11.954Z,100961.4453125
2023-02-19T06:39:11.721Z,100959.97265625
2023-02-19T06:40:13.984Z,100964.8828125
2023-02-19T06:41:11.819Z,100964.65625
2023-02-19T06:42:11.595Z,100964.6640625
2023-02-19T06:43:11.976Z,100963.73046875
2023-02-19T06:44:11.666Z,100961.53125
2023-02-19T06:45:11.721Z,100970.1640625
2023-02-19T06:46:11.703Z,100969.9375
2023-02-19T06:47:11.684Z,100966.6640625
2023-02-19T06:48:11.962Z,100975.06640625
2023-02-19T06:49:11.722Z,100969.25390625
2023-02-19T06:50:11.604Z,100974.2734375
2023-02-19T06:51:13.951Z,100973.07421875
2023-02-19T06:52:11.705Z,100970.40234375
2023-02-19T06:53:11.961Z,100972.63671875
2023-02-19T06:54:11.676Z,100976.66796875
2023-02-19T06:55:11.705Z,100976.77734375
2023-02-19T06:56:11.653Z,100979.62109375
2023-02-19T06:57:11.616Z,100977.4921875
2023-02-19T06:58:11.960Z,100981.31640625
2023-02-19T06:59:11.648Z,100979.8828125
2023-02-19T07:00:11.687Z,100978.5234375
2023-02-19T07:01:12.153Z,100983.76953125
2023-02-19T07:02:13.981Z,100986.87890625
2023-02-19T07:03:11.954Z,100982.5078125
2023-02-19T07:04:11.764Z,100985.8984375
2023-02-19T07:05:11.690Z,100986.76171875
2023-02-19T07:06:11.641Z,100985.125
2023-02-19T07:07:11.732Z,100985.90234375
2023-02-19T07:08:11.966Z,100990.4765625
2023-02-19T07:09:11.703Z,100984.6484375
2023-02-19T07:10:11.709Z,100989.625
2023-02-19T07:11:12.074Z,100993.43359375
2023-02-19T07:12:11.677Z,100999.27734375
2023-02-19T07:13:16.410Z,100998.73046875
2023-02-19T07:14:11.666Z,101003.63671875
2023-02-19T07:15:11.717Z,101004.99609375
2023-02-19T07:16:11.908Z,101006.52734375
2023-02-19T07:17:11.627Z,101005.38671875
2023-02-19T07:18:11.701Z,101006.3203125
2023-02-19T07:19:11.746Z,101010.99609375
2023-02-19T07:20:12.798Z,101013.6796875
2023-02-19T07:21:12.050Z,101015.18359375
2023-02-19T07:22:11.739Z,101019.2265625
2023-02-19T07:23:11.683Z,101017.15234375
2023-02-19T07:24:13.952Z,101020.30859375
2023-02-19T07:25:11.714Z,101021.15234375
2023-02-19T07:26:11.708Z,101023.984375
2023-02-19T07:27:11.696Z,101024.22265625
2023-02-19T07:28:11.958Z,101028.328125
2023-02-19T07:29:11.665Z,101023.296875
2023-02-19T07:30:11.728Z,101028.37890625
2023-02-19T07:31:12.126Z,101030.9296875
2023-02-19T07:32:11.646Z,101039.71484375
2023-02-19T07:33:11.946Z,101036.91796875
2023-02-19T07:34:11.706Z,101032.15625
2023-02-19T07:35:13.955Z,101030.58984375
2023-02-19T07:36:11.587Z,101032.73828125
2023-02-19T07:37:11.592Z,101030.953125
2023-02-19T07:38:11.959Z,101031.875
2023-02-19T07:39:11.723Z,101035.69140625
2023-02-19T07:40:11.631Z,101035.65234375
2023-02-19T07:41:11.968Z,101039.47265625
2023-02-19T07:42:11.745Z,101037.23046875
2023-02-19T07:43:11.746Z,101044.05078125
2023-02-19T07:44:11.701Z,101046.84375
2023-02-19T07:45:11.723Z,101048.52734375
2023-02-19T07:46:14.062Z,101038.94140625
2023-02-19T07:47:11.671Z,101051.37109375
2023-02-19T07:48:11.710Z,101049.578125
2023-02-19T07:49:11.627Z,101048.1015625
2023-02-19T07:50:14.045Z,101048.26171875
2023-02-19T07:51:12.037Z,101047.890625
2023-02-19T07:52:11.743Z,101048.5546875
2023-02-19T07:53:11.649Z,101053.14453125
2023-02-19T07:54:11.657Z,101053.19921875
2023-02-19T07:55:11.682Z,101051.8359375
2023-02-19T07:56:11.622Z,101053.59765625
2023-02-19T07:57:13.929Z,101055.44140625
2023-02-19T07:58:11.969Z,101055.9921875
2023-02-19T07:59:11.714Z,101058.9296875
2023-02-19T08:00:11.709Z,101063.4140625
2023-02-19T08:01:11.985Z,101062.203125
2023-02-19T08:02:11.734Z,101058.9453125
2023-02-19T08:03:11.987Z,101060.90234375
2023-02-19T08:04:11.662Z,101065.83203125
2023-02-19T08:05:11.605Z,101064.84375
2023-02-19T08:06:11.680Z,101071.5
2023-02-19T08:07:11.670Z,101072.26171875
2023-02-19T08:08:16.408Z,101074.46875
2023-02-19T08:09:11.636Z,101071.9375
2023-02-19T08:10:11.720Z,101074.0703125
2023-02-19T08:11:11.884Z,101072.16796875
2023-02-19T08:12:11.679Z,101068.6796875
2023-02-19T08:13:11.639Z,101072.0546875
2023-02-19T08:14:11.608Z,101076.046875
2023-02-19T08:15:11.807Z,101072.32421875
2023-02-19T08:16:20.155Z,101077.578125
2023-02-19T08:17:11.768Z,101076.90234375
2023-02-19T08:18:11.954Z,101075.64453125
2023-02-19T08:19:14.020Z,101076.65234375
2023-02-19T08:20:11.745Z,101082.68359375
2023-02-19T08:21:11.984Z,101087.3359375
2023-02-19T08:22:11.732Z,101089.9609375
2023-02-19T08:23:11.958Z,101094.765625
2023-02-19T08:24:11.612Z,101099.09375
2023-02-19T08:25:11.677Z,101098.7109375
2023-02-19T08:26:11.731Z,101097.44921875
2023-02-19T08:27:11.639Z,101101.125
2023-02-19T08:28:11.956Z,101111.8671875
2023-02-19T08:29:11.725Z,101110.78125
2023-02-19T08:30:14.034Z,101116.2265625
2023-02-19T08:31:12.118Z,101114.875
2023-02-19T08:32:11.786Z,101114.20703125
2023-02-19T08:33:11.731Z,101114.34765625
2023-02-19T08:34:11.599Z,101117.828125
2023-02-19T08:35:11.610Z,101126.515625
2023-02-19T08:36:11.682Z,101128.87890625
2023-02-19T08:37:11.621Z,101128.2578125
2023-02-19T08:38:11.966Z,101129.65625
2023-02-19T08:39:11.819Z,101134.51171875
2023-02-19T08:40:11.691Z,101132.26953125
2023-02-19T08:41:14.385Z,101127.08203125
2023-02-19T08:42:11.718Z,101126.40234375
2023-02-19T08:43:11.640Z,101131.51171875
2023-02-19T08:44:11.714Z,101134.69140625
2023-02-19T08:45:11.626Z,101133.625
2023-02-19T08:46:11.631Z,101136.53515625
2023-02-19T08:47:11.723Z,101137.265625
2023-02-19T08:48:11.963Z,101139.578125
2023-02-19T08:49:11.664Z,101142.3125
2023-02-19T08:50:12.536Z,101143.45703125
2023-02-19T08:51:12.044Z,101138.9140625
2023-02-19T08:52:14.036Z,101141.3203125
2023-02-19T08:53:11.955Z,101138.91015625
2023-02-19T08:54:11.700Z,101141.49609375
2023-02-19T08:55:11.607Z,101141.83203125
2023-02-19T08:56:11.620Z,101135.57421875
2023-02-19T08:57:11.685Z,101136.91796875
2023-02-19T08:58:11.958Z,101133.0625
2023-02-19T08:59:11.687Z,101133.3359375
2023-02-19T09:00:11.735Z,101129.22265625
2023-02-19T09:01:12.324Z,101129.88671875
2023-02-19T09:02:11.703Z,101135.30859375
2023-02-19T09:03:16.443Z,101139.74609375
2023-02-19T09:04:11.748Z,101140.15625
2023-02-19T09:05:11.740Z,101138.73046875
2023-02-19T09:06:11.962Z,101142.5078125
2023-02-19T09:07:11.649Z,101142.9765625
2023-02-19T09:08:11.949Z,101143.9296875
2023-02-19T09:09:11.724Z,101139.33203125
2023-02-19T09:10:11.728Z,101140.3984375
2023-02-19T09:11:11.932Z,101141.24609375
2023-02-19T09:12:11.727Z,101141.87890625
2023-02-19T09:13:11.664Z,101143.81640625
2023-02-19T09:14:13.998Z,101143.5703125
2023-02-19T09:15:11.714Z,101137.796875
2023-02-19T09:16:11.749Z,101139.24609375
2023-02-19T09:17:11.590Z,101141.1328125
2023-02-19T09:18:11.646Z,101139.51953125
2023-02-19T09:19:11.645Z,101143.5703125
2023-02-19T09:20:12.711Z,101145.2421875
2023-02-19T09:21:11.852Z,101155.41796875
2023-02-19T09:22:11.709Z,101155.13671875
2023-02-19T09:23:11.963Z,101158.8984375
2023-02-19T09:24:11.727Z,101161.53515625
2023-02-19T09:25:13.937Z,101165.94140625
2023-02-19T09:26:11.657Z,101168.2109375
2023-02-19T09:27:11.625Z,101171.328125
2023-02-19T09:28:11.650Z,101169.1640625
2023-02-19T09:29:11.687Z,101167.62109375
2023-02-19T09:30:11.755Z,101168.8046875
2023-02-19T09:31:11.923Z,101172.99609375
2023-02-19T09:32:11.878Z,101167.43359375
2023-02-19T09:33:11.961Z,101168.93359375
2023-02-19T09:34:11.731Z,101162.75
2023-02-19T09:35:11.717Z,101161.34765625
2023-02-19T09:36:14.042Z,101167.07421875
2023-02-19T09:37:11.710Z,101164.8671875
2023-02-19T09:38:11.815Z,101169.9375
2023-02-19T09:39:11.698Z,101169.23046875
2023-02-19T09:40:11.609Z,101168.16796875
2023-02-19T09:41:11.924Z,101172.66796875
2023-02-19T09:42:11.736Z,101168.81640625
2023-02-19T09:43:11.964Z,101170.703125
2023-02-19T09:44:11.722Z,101168.81640625
2023-02-19T09:45:11.673Z,101170.734375
2023-02-19T09:46:11.657Z,101167.7265625
2023-02-19T09:47:13.972Z,101168.8984375
2023-02-19T09:48:11.676Z,101170.23828125
2023-02-19T09:49:11.739Z,101170.2421875
2023-02-19T09:50:11.742Z,101176.125
2023-02-19T09:51:11.917Z,101176.609375
2023-02-19T09:52:11.715Z,101175.48046875
2023-02-19T09:53:11.701Z,101174.90234375
2023-02-19T09:54:11.631Z,101176.78125
2023-02-19T09:55:11.609Z,101180.84765625
2023-02-19T09:56:11.668Z,101183.50390625
2023-02-19T09:57:11.666Z,101181.87890625
2023-02-19T09:58:14.124Z,101186.51171875
2023-02-19T09:59:11.620Z,101188.76171875
2023-02-19T10:00:11.673Z,101188.43359375